TimeCDT,TemperatureF,Dew PointF,Humidity,Sea Level PressureIn,VisibilityMPH,Wind Direction,Wind SpeedMPH,Gust SpeedMPH,PrecipitationIn,Events,Conditions,WindDirDegrees,DateUTC
12:53 AM,69.1,64.9,87,29.63,8.0,Calm,Calm,-,N/A,,Clear,0,2012-05-03 05:53:00
1:53 AM,66.0,64.0,93,29.62,7.0,Calm,Calm,-,N/A,,Clear,0,2012-05-03 06:53:00
2:31 AM,66.2,64.4,94,29.69,7.0,North,4.6,-,N/A,,Mostly Cloudy,350,2012-05-03 07:31:00
2:53 AM,66.9,64.9,93,29.63,5.0,North,5.8,-,N/A,,Overcast,360,2012-05-03 07:53:00
3:39 AM,68.0,64.4,88,29.73,8.0,North,6.9,-,N/A,,Overcast,360,2012-05-03 08:39:00
3:48 AM,68.0,64.4,88,29.73,8.0,North,5.8,-,N/A,,Mostly Cloudy,360,2012-05-03 08:48:00
3:53 AM,68.0,64.9,90,29.66,7.0,NNW,11.5,-,N/A,,Mostly Cloudy,340,2012-05-03 08:53:00
4:53 AM,64.0,51.1,63,29.70,10.0,North,16.1,24.2,N/A,,Partly Cloudy,360,2012-05-03 09:53:00
5:53 AM,63.0,48.0,58,29.71,10.0,North,12.7,-,N/A,,Clear,360,2012-05-03 10:53:00
6:53 AM,62.1,48.0,60,29.72,10.0,North,10.4,-,N/A,,Clear,10,2012-05-03 11:53:00
7:53 AM,63.0,48.9,60,29.75,10.0,North,10.4,-,N/A,,Clear,360,2012-05-03 12:53:00
8:53 AM,66.9,52.0,59,29.76,10.0,North,12.7,19.6,N/A,,Clear,10,2012-05-03 13:53:00
9:53 AM,71.1,57.0,61,29.78,10.0,NE,9.2,-,N/A,,Clear,40,2012-05-03 14:53:00
10:53 AM,75.0,63.0,66,29.79,10.0,NE,9.2,-,N/A,,Clear,50,2012-05-03 15:53:00
11:53 AM,78.1,63.0,60,29.79,10.0,NE,9.2,-,N/A,,Partly Cloudy,50,2012-05-03 16:53:00
12:53 PM,80.1,64.0,58,29.78,10.0,North,6.9,-,N/A,,Clear,10,2012-05-03 17:53:00
3:53 PM,84.0,64.0,51,29.75,10.0,ENE,10.4,-,N/A,,Partly Cloudy,70,2012-05-03 20:53:00
4:53 PM,82.9,63.0,51,29.74,10.0,ESE,8.1,-,N/A,,Clear,110,2012-05-03 21:53:00
5:53 PM,84.0,63.0,49,29.73,10.0,ENE,6.9,-,N/A,,Clear,60,2012-05-03 22:53:00
6:53 PM,82.0,62.1,51,29.75,10.0,ENE,5.8,-,N/A,,Clear,60,2012-05-03 23:53:00
7:53 PM,78.1,64.9,64,29.75,10.0,East,3.5,-,N/A,,Clear,100,2012-05-04 00:53:00
8:53 PM,72.0,64.0,76,29.76,10.0,East,3.5,-,N/A,,Clear,100,2012-05-04 01:53:00
9:53 PM,68.0,63.0,84,29.78,10.0,ENE,4.6,-,N/A,,Clear,60,2012-05-04 02:53:00
10:53 PM,66.9,63.0,87,29.79,9.0,East,5.8,-,N/A,,Clear,80,2012-05-04 03:53:00
11:53 PM,66.0,63.0,90,29.79,9.0,NE,3.5,-,N/A,,Clear,50,2012-05-04 04:53:00